createdAt,value
2022-11-24T00:07:01.000Z,32.70
2022-11-24T00:17:01.000Z,31.40
2022-11-24T00:27:02.000Z,28.50
2022-11-24T00:37:02.000Z,29.30
2022-11-24T00:57:02.000Z,28.50
2022-11-24T01:07:02.000Z,28.20
2022-11-24T01:17:02.000Z,28.60
2022-11-24T01:27:03.000Z,27.70
2022-11-24T01:37:03.000Z,29.30
2022-11-24T01:47:03.000Z,28.40
2022-11-24T01:57:03.000Z,30.10
2022-11-24T02:07:03.000Z,28.10
2022-11-24T02:27:03.000Z,30.20
2022-11-24T02:37:03.000Z,30.50
2022-11-24T02:47:03.000Z,26.60
2022-11-24T02:57:03.000Z,26.00
2022-11-24T03:07:03.000Z,26.50
2022-11-24T03:17:03.000Z,27.00
2022-11-24T03:27:04.000Z,27.70
2022-11-24T03:37:04.000Z,26.00
2022-11-24T03:57:04.000Z,28.20
2022-11-24T04:07:04.000Z,32.00
2022-11-24T04:17:04.000Z,29.00
2022-11-24T04:27:04.000Z,25.60
2022-11-24T04:37:04.000Z,25.10
2022-11-24T04:47:04.000Z,26.20
2022-11-24T04:57:04.000Z,27.90
2022-11-24T04:57:04.000Z,27.90
2022-11-24T05:07:04.000Z,27.10
2022-11-24T05:27:04.000Z,29.20
2022-11-24T05:37:04.000Z,30.30
2022-11-24T05:47:04.000Z,27.60
2022-11-24T05:57:04.000Z,29.10
2022-11-24T06:07:04.000Z,27.90
2022-11-24T06:17:04.000Z,27.60
2022-11-24T06:27:04.000Z,28.70
2022-11-24T06:37:03.000Z,25.60
2022-11-24T06:57:03.000Z,24.20
2022-11-24T07:07:03.000Z,24.80
2022-11-24T07:17:03.000Z,26.60
2022-11-24T07:42:21.000Z,22.20
2022-11-24T07:42:21.000Z,24.20
2022-11-24T07:52:21.000Z,22.40
2022-11-24T08:02:21.000Z,20.60
2022-11-24T08:12:21.000Z,20.90
2022-11-24T08:22:21.000Z,18.60
2022-11-24T08:32:21.000Z,19.50
2022-11-24T08:42:20.000Z,17.00
2022-11-24T08:52:20.000Z,15.00
2022-11-24T09:12:20.000Z,14.60
2022-11-24T09:22:20.000Z,10.70
2022-11-24T09:32:19.000Z,10.30
2022-11-24T09:42:19.000Z,11.40
2022-11-24T09:52:19.000Z,11.50
2022-11-24T10:02:18.000Z,12.10
2022-11-24T10:12:18.000Z,9.80
2022-11-24T10:22:18.000Z,10.90
2022-11-24T10:42:17.000Z,8.60
2022-11-24T10:52:17.000Z,10.20
2022-11-24T11:02:17.000Z,10.10
2022-11-24T11:12:16.000Z,9.30
2022-11-24T11:22:16.000Z,9.20
2022-11-24T11:32:16.000Z,10.50
2022-11-24T11:32:16.000Z,10.50
2022-11-24T11:42:15.000Z,9.50
2022-11-24T11:52:15.000Z,12.80
2022-11-24T12:12:14.000Z,9.50
2022-11-24T12:22:13.000Z,8.00
2022-11-24T12:32:13.000Z,6.30
2022-11-24T12:42:12.000Z,6.40
2022-11-24T12:52:12.000Z,6.70
2022-11-24T13:02:12.000Z,6.40
2022-11-24T13:12:11.000Z,6.00
2022-11-24T13:22:11.000Z,7.60
2022-11-24T13:22:11.000Z,7.60
2022-11-24T13:42:10.000Z,7.20
2022-11-24T13:52:09.000Z,7.40
2022-11-24T14:02:09.000Z,7.20
2022-11-24T14:12:08.000Z,7.00
2022-11-24T14:22:08.000Z,7.60
2022-11-24T14:32:07.000Z,11.10
2022-11-24T14:42:07.000Z,10.10
2022-11-24T14:52:06.000Z,8.50
2022-11-24T15:12:05.000Z,9.80
2022-11-24T15:22:05.000Z,7.50
2022-11-24T15:32:05.000Z,10.20
2022-11-24T15:42:04.000Z,9.20
2022-11-24T15:52:04.000Z,9.60
2022-11-24T16:02:03.000Z,9.30
2022-11-24T16:12:03.000Z,7.10
2022-11-24T16:22:02.000Z,8.60
2022-11-24T16:42:02.000Z,9.30
2022-11-24T16:52:01.000Z,11.60
2022-11-24T17:02:01.000Z,10.60
2022-11-24T17:12:01.000Z,11.60
2022-11-24T17:22:00.000Z,25.60
2022-11-24T17:32:00.000Z,20.40
2022-11-24T17:42:00.000Z,26.60
2022-11-24T17:51:59.000Z,23.00
2022-11-24T18:11:59.000Z,20.10
2022-11-24T18:21:58.000Z,16.00
2022-11-24T18:31:58.000Z,24.10
2022-11-24T18:41:57.000Z,25.30
2022-11-24T18:51:57.000Z,18.30
2022-11-24T19:01:57.000Z,21.50
2022-11-24T19:11:56.000Z,22.50
2022-11-24T19:42:13.000Z,11.90
2022-11-24T19:42:13.000Z,12.00
2022-11-24T19:52:13.000Z,14.10
2022-11-24T20:02:13.000Z,34.50
2022-11-24T20:12:13.000Z,12.50
2022-11-24T20:22:13.000Z,19.80
2022-11-24T20:32:13.000Z,15.20
2022-11-24T20:42:14.000Z,18.60
2022-11-24T20:52:14.000Z,22.80
2022-11-24T21:12:14.000Z,15.00
2022-11-24T21:22:14.000Z,13.40
2022-11-24T21:32:14.000Z,14.40
2022-11-24T21:42:14.000Z,14.00
2022-11-24T21:52:15.000Z,14.60
2022-11-24T22:02:15.000Z,31.00
2022-11-24T22:12:15.000Z,14.00
2022-11-24T22:22:15.000Z,16.00
2022-11-24T22:42:16.000Z,15.80
2022-11-24T22:52:16.000Z,14.80
2022-11-24T23:02:16.000Z,14.10
2022-11-24T23:12:16.000Z,13.00
2022-11-24T23:22:17.000Z,16.00
2022-11-24T23:32:17.000Z,12.20
2022-11-24T23:42:17.000Z,13.40
2022-11-24T23:52:17.000Z,13.80
